Time;durP1;ratioP1;P1;durP2;ratioP2;P2;SDS_P1;SDS_P2;PMS_P1;PMS_P2;Temp;Humidity;BMP_temperature;BMP_pressure;BME280_temperature;BME280_humidity;BME280_pressure;Samples;Min_cycle;Max_cycle;Signal;HPM_P1;HPM_P2
2023/06/28 00:01:09;;;;;;;1.60;1.50;;;;;;;25.81;80.56;99656.38;5073406;28;20685;-75
2023/06/28 00:03:35;;;;;;;1.52;1.42;;;;;;;25.81;80.55;99667.00;5073110;28;20230;-74
2023/06/28 00:06:02;;;;;;;1.45;1.35;;;;;;;25.79;80.84;99662.72;5073615;28;20202;-75
2023/06/28 00:08:30;;;;;;;1.20;1.20;;;;;;;25.85;81.39;99662.38;5072439;28;20213;-74
2023/06/28 00:10:57;;;;;;;4.68;1.98;;;;;;;25.40;82.32;99617.88;5073532;28;20225;-75
2023/06/28 00:13:24;;;;;;;1.85;1.60;;;;;;;25.65;82.77;99661.63;5073034;28;20221;-74
2023/06/28 00:15:51;;;;;;;1.60;1.50;;;;;;;25.58;83.25;99648.78;5073304;28;20278;-74
2023/06/28 00:18:18;;;;;;;1.60;1.50;;;;;;;25.73;82.50;99658.59;5072885;28;20203;-74
2023/06/28 00:20:45;;;;;;;1.50;1.40;;;;;;;25.81;83.50;99667.00;5072794;28;20257;-75
2023/06/28 00:23:13;;;;;;;1.50;1.40;;;;;;;25.71;83.13;99664.94;5073008;28;20207;-74
2023/06/28 00:25:42;;;;;;;2.20;2.10;;;;;;;25.80;83.71;99665.28;5073197;28;20260;-74
2023/06/28 00:28:08;;;;;;;1.45;1.35;;;;;;;25.58;84.81;99662.03;5072837;28;20558;-74
2023/06/28 00:30:35;;;;;;;1.65;1.55;;;;;;;25.26;84.76;99599.13;5072002;28;20218;-74
2023/06/28 00:33:02;;;;;;;1.50;1.40;;;;;;;25.61;85.61;99659.25;5072242;28;20198;-75
2023/06/28 00:35:29;;;;;;;1.50;1.40;;;;;;;25.62;85.90;99660.94;5071975;28;20202;-75
2023/06/28 00:37:56;;;;;;;1.23;1.23;;;;;;;25.66;86.24;99667.81;5072510;28;20206;-75
2023/06/28 00:40:23;;;;;;;2.30;1.90;;;;;;;25.59;86.19;99655.81;5053712;28;20206;-75
2023/06/28 00:42:51;;;;;;;1.67;1.58;;;;;;;25.75;85.79;99661.16;5072604;28;20207;-75
2023/06/28 00:45:18;;;;;;;1.40;1.30;;;;;;;25.58;85.83;99648.78;5072111;28;20201;-75
2023/06/28 00:47:45;;;;;;;1.38;1.38;;;;;;;25.58;87.22;99659.38;5072172;28;20190;-74
2023/06/28 00:50:14;;;;;;;1.50;1.40;;;;;;;25.32;86.39;99609.47;5053046;28;20711;-73
2023/06/28 00:52:41;;;;;;;1.23;1.23;;;;;;;25.59;86.38;99655.81;5072797;28;20294;-74
2023/06/28 00:55:08;;;;;;;1.70;1.60;;;;;;;25.53;87.83;99664.09;5071635;28;20198;-74
2023/06/28 00:57:35;;;;;;;1.83;1.73;;;;;;;25.42;88.08;99647.84;5071652;28;20199;-73
2023/06/28 01:00:08;;;;;;;1.83;1.73;;;;;;;25.61;88.96;99660.09;5071660;28;20202;-73
2023/06/28 01:02:35;;;;;;;1.70;1.60;;;;;;;25.42;89.16;99653.16;5071207;28;20681;-74
2023/06/28 01:05:03;;;;;;;1.23;1.23;;;;;;;25.40;89.45;99647.09;5071591;28;20221;-74
2023/06/28 01:07:35;;;;;;;1.33;1.33;;;;;;;25.47;89.60;99651.13;5071711;28;20214;-74
2023/06/28 01:10:02;;;;;;;1.70;1.60;;;;;;;25.41;90.02;99659.41;5033707;28;20193;-74
2023/06/28 01:12:30;;;;;;;1.58;1.48;;;;;;;25.29;91.32;99645.00;5060535;28;20607;-73
2023/06/28 01:14:57;;;;;;;1.40;1.30;;;;;;;25.16;92.01;99635.94;5055843;28;20203;-74
2023/06/28 01:17:25;;;;;;;1.40;1.40;;;;;;;25.12;92.89;99645.84;5071597;28;20198;-73
2023/06/28 01:19:54;;;;;;;1.50;1.40;;;;;;;25.06;94.61;99654.13;5027325;28;20211;-73
2023/06/28 01:22:24;;;;;;;1.50;1.40;;;;;;;25.14;94.07;99653.72;5071226;28;20308;-73
2023/06/28 01:24:53;;;;;;;1.63;1.52;;;;;;;25.13;93.96;99652.88;5071100;28;20202;-74
2023/06/28 01:27:20;;;;;;;1.70;1.65;;;;;;;25.07;93.80;99655.84;5071285;28;20210;-73
2023/06/28 01:29:55;;;;;;;1.20;1.20;;;;;;;25.16;93.10;99652.72;5071180;28;20244;-74
2023/06/28 01:32:22;;;;;;;1.30;1.30;;;;;;;24.88;94.24;99635.63;5070986;28;20315;-74
2023/06/28 01:34:49;;;;;;;1.70;1.60;;;;;;;24.91;95.10;99648.72;5071229;28;20211;-74
2023/06/28 01:37:17;;;;;;;1.05;1.05;;;;;;;24.88;94.91;99649.75;5071346;28;20218;-74
2023/06/28 01:39:45;;;;;;;2.28;1.90;;;;;;;24.96;95.39;99655.53;5071545;28;20194;-74
2023/06/28 01:42:14;;;;;;;1.48;1.38;;;;;;;24.97;95.01;99656.41;5071037;28;20302;-73
2023/06/28 01:44:40;;;;;;;1.45;1.45;;;;;;;24.88;95.65;99659.50;5070987;28;20232;-73
2023/06/28 01:47:08;;;;;;;1.70;1.60;;;;;;;24.65;97.14;99647.34;5070791;28;20620;-73
2023/06/28 01:49:36;;;;;;;2.13;1.88;;;;;;;24.68;97.23;99661.28;5070791;28;20195;-74
2023/06/28 01:52:04;;;;;;;1.50;1.40;;;;;;;24.62;99.52;99687.25;5052132;28;20214;-74
2023/06/28 01:54:32;;;;;;;1.70;1.60;;;;;;;24.51;100.00;99679.81;5035809;28;20206;-73
2023/06/28 01:56:59;;;;;;;1.60;1.50;;;;;;;24.43;100.00;99689.97;5063626;28;20202;-74
2023/06/28 01:59:27;;;;;;;1.60;1.50;;;;;;;24.35;100.00;99686.81;5071017;28;20195;-73
2023/06/28 02:01:54;;;;;;;1.50;1.40;;;;;;;24.26;100.00;99689.88;5035914;28;20238;-73
2023/06/28 02:04:20;;;;;;;1.30;1.30;;;;;;;24.23;100.00;99684.72;5035185;28;20190;-73
2023/06/28 02:06:47;;;;;;;1.30;1.30;;;;;;;24.04;100.00;99684.69;5071011;28;20199;-73
2023/06/28 02:09:14;;;;;;;1.60;1.50;;;;;;;23.97;100.00;99679.78;5070623;28;20218;-73
2023/06/28 02:11:41;;;;;;;1.33;1.33;;;;;;;23.97;100.00;99682.41;5071137;28;20198;-74
2023/06/28 02:14:07;;;;;;;1.23;1.23;;;;;;;23.94;100.00;99683.41;5035493;28;20211;-73
2023/06/28 02:16:37;;;;;;;1.23;1.23;;;;;;;23.87;100.00;99686.38;5070733;28;20195;-73
2023/06/28 02:19:04;;;;;;;1.20;1.20;;;;;;;23.75;100.00;99682.53;5070510;28;20223;-74
2023/06/28 02:21:31;;;;;;;1.30;1.30;;;;;;;23.58;100.00;99680.63;5051138;28;20618;-74
2023/06/28 02:23:58;;;;;;;1.10;1.10;;;;;;;23.67;100.00;99685.53;5070375;28;20195;-73
2023/06/28 02:26:24;;;;;;;1.27;1.27;;;;;;;23.63;100.00;99683.06;5070406;28;20199;-73
2023/06/28 02:28:51;;;;;;;1.40;1.40;;;;;;;23.59;100.00;99686.78;5070095;28;20661;-74
2023/06/28 02:31:18;;;;;;;1.35;1.35;;;;;;;23.55;100.00;99687.84;5069636;28;20249;-74
2023/06/28 02:33:46;;;;;;;1.40;1.40;;;;;;;23.61;100.00;99680.50;5070170;28;20203;-74
2023/06/28 02:36:13;;;;;;;1.60;1.50;;;;;;;23.51;100.00;99681.81;5070951;28;20198;-74
2023/06/28 02:38:41;;;;;;;1.58;1.48;;;;;;;23.57;100.00;99684.22;5051730;28;20297;-74
2023/06/28 02:41:07;;;;;;;2.17;2.08;;;;;;;23.50;100.00;99680.13;5051756;28;20202;-74
2023/06/28 02:43:34;;;;;;;1.15;1.15;;;;;;;23.57;100.00;99683.34;5070235;28;20210;-74
2023/06/28 02:46:01;;;;;;;1.65;1.55;;;;;;;23.46;100.00;99675.88;5070618;28;20203;-74
2023/06/28 02:48:27;;;;;;;1.30;1.30;;;;;;;23.46;100.00;99696.19;5069958;28;20206;-74
2023/06/28 02:50:56;;;;;;;1.30;1.30;;;;;;;23.59;100.00;99694.72;5070058;28;20202;-75
2023/06/28 02:53:22;;;;;;;1.50;1.40;;;;;;;23.30;100.00;99658.91;5036254;28;20195;-74
2023/06/28 02:55:49;;;;;;;1.30;1.30;;;;;;;23.43;100.00;99693.69;5070275;28;20203;-75
2023/06/28 02:58:16;;;;;;;1.55;1.52;;;;;;;23.54;100.00;99688.78;5069317;28;20218;-74
2023/06/28 03:00:46;;;;;;;1.80;1.70;;;;;;;23.45;100.00;99662.72;5069869;28;20234;-75
2023/06/28 03:03:13;;;;;;;1.52;1.42;;;;;;;23.59;100.00;99686.78;5070310;28;20211;-74
2023/06/28 03:05:40;;;;;;;0.85;0.85;;;;;;;23.77;100.00;99683.31;5058832;28;20248;-75
2023/06/28 03:08:08;;;;;;;1.00;1.00;;;;;;;23.64;100.00;99684.78;5070046;28;20199;-75
2023/06/28 03:10:35;;;;;;;1.00;1.00;;;;;;;23.68;100.00;99689.03;5070077;28;20268;-75
2023/06/28 03:13:02;;;;;;;0.90;0.90;;;;;;;23.70;100.00;99687.16;5070322;28;20619;-75
2023/06/28 03:15:29;;;;;;;1.00;1.00;;;;;;;23.79;100.00;99678.81;5070448;28;20685;-74
2023/06/28 03:17:55;;;;;;;1.20;1.20;;;;;;;24.15;100.00;99693.03;5065049;28;20662;-74
2023/06/28 03:20:22;;;;;;;1.15;1.15;;;;;;;24.12;100.00;99701.09;5022913;28;20231;-75
2023/06/28 03:22:49;;;;;;;1.20;1.20;;;;;;;24.27;100.00;99702.22;5069383;28;20685;-73
2023/06/28 03:25:17;;;;;;;1.20;1.20;;;;;;;24.45;100.00;99705.78;5034238;28;20221;-74
2023/06/28 03:27:44;;;;;;;1.20;1.20;;;;;;;24.22;100.00;99701.59;5069166;28;20205;-73
2023/06/28 03:30:11;;;;;;;1.23;1.23;;;;;;;24.24;100.00;99691.75;5069638;28;20232;-73
2023/06/28 03:32:38;;;;;;;1.17;1.17;;;;;;;24.39;100.00;99703.44;5034121;28;20252;-74
2023/06/28 03:35:06;;;;;;;1.30;1.30;;;;;;;24.70;100.00;99703.66;5048133;28;20716;-74
2023/06/28 03:37:32;;;;;;;1.38;1.38;;;;;;;24.56;100.00;99687.56;5069244;28;20671;-74
2023/06/28 03:39:59;;;;;;;1.48;1.38;;;;;;;24.90;100.00;99700.91;5068832;28;20599;-76
2023/06/28 03:42:27;;;;;;;1.30;1.30;;;;;;;25.12;100.00;99711.31;5066403;28;20697;-75
2023/06/28 03:44:54;;;;;;;1.25;1.25;;;;;;;25.28;99.52;99712.28;5071116;28;20199;-77
2023/06/28 03:47:21;;;;;;;1.50;1.40;;;;;;;25.32;96.23;99702.34;5069440;28;20662;-74
2023/06/28 03:49:48;;;;;;;1.15;1.15;;;;;;;25.32;96.06;99719.16;5032410;28;20693;-74
2023/06/28 03:52:14;;;;;;;1.10;1.10;;;;;;;25.51;95.17;99722.59;5072206;28;20226;-74
2023/06/28 03:54:41;;;;;;;1.05;1.05;;;;;;;25.86;92.97;99712.78;5068469;28;20198;-72
2023/06/28 03:57:08;;;;;;;1.52;1.52;;;;;;;25.91;89.74;99715.19;5052918;28;20206;-75
2023/06/28 03:59:36;;;;;;;1.50;1.50;;;;;;;26.07;88.51;99706.31;5071817;28;20206;-73
2023/06/28 04:02:03;;;;;;;0.98;0.98;;;;;;;26.11;87.17;99696.38;5072850;28;20299;-72
2023/06/28 04:04:30;;;;;;;1.17;1.17;;;;;;;26.15;86.27;99685.47;5072504;28;20248;-74
2023/06/28 04:06:57;;;;;;;1.10;1.10;;;;;;;26.39;83.56;99695.72;5072348;28;20195;-72
2023/06/28 04:09:23;;;;;;;1.45;1.35;;;;;;;26.33;81.11;99696.91;5073001;28;20195;-72
2023/06/28 04:11:50;;;;;;;1.60;1.60;;;;;;;26.00;81.81;99673.03;5073135;28;20206;-74
2023/06/28 04:14:17;;;;;;;1.10;1.10;;;;;;;26.25;81.69;99708.94;5072704;28;20202;-72
2023/06/28 04:16:45;;;;;;;1.00;1.00;;;;;;;26.36;80.81;99678.13;5073185;28;20202;-73
2023/06/28 04:19:12;;;;;;;1.23;1.23;;;;;;;26.47;79.24;99710.28;5069725;28;20206;-72
2023/06/28 04:21:39;;;;;;;0.93;0.93;;;;;;;26.57;78.84;99710.66;5037338;28;20195;-73
2023/06/28 04:24:06;;;;;;;0.98;0.98;;;;;;;26.49;79.76;99715.53;5072141;28;20211;-72
2023/06/28 04:26:33;;;;;;;1.02;1.02;;;;;;;26.42;79.62;99706.19;5072788;28;20654;-73
2023/06/28 04:28:59;;;;;;;1.20;1.20;;;;;;;26.18;78.29;99695.13;5072618;28;20195;-73
2023/06/28 04:31:26;;;;;;;1.15;1.15;;;;;;;26.56;77.73;99714.25;5072540;28;20249;-73
2023/06/28 04:33:56;;;;;;;1.20;1.20;;;;;;;26.54;78.39;99717.00;5071907;28;20206;-73
2023/06/28 04:36:23;;;;;;;1.10;1.10;;;;;;;26.77;76.57;99709.50;5072233;28;20195;-72
2023/06/28 04:38:52;;;;;;;1.83;1.73;;;;;;;26.90;75.52;99719.38;5072164;28;20252;-73
2023/06/28 04:41:19;;;;;;;1.10;1.10;;;;;;;26.98;74.82;99722.47;5072278;28;20199;-73
2023/06/28 04:43:46;;;;;;;1.50;1.50;;;;;;;27.11;74.23;99723.47;5071140;28;20837;-73
2023/06/28 04:46:13;;;;;;;0.90;0.90;;;;;;;27.02;73.37;99697.41;5055918;28;20306;-72
2023/06/28 04:48:40;;;;;;;1.10;1.10;;;;;;;26.98;73.15;99701.19;5060748;28;20199;-72
2023/06/28 04:51:08;;;;;;;1.00;1.00;;;;;;;27.25;73.68;99724.47;5071586;28;20211;-72
2023/06/28 04:53:35;;;;;;;0.90;0.90;;;;;;;27.17;74.37;99721.41;5071151;28;20217;-73
2023/06/28 04:56:02;;;;;;;1.50;1.50;;;;;;;26.75;76.21;99733.56;5070951;28;20207;-74
2023/06/28 04:58:29;;;;;;;1.00;1.00;;;;;;;26.97;76.02;99704.78;5070647;28;20191;-75
2023/06/28 05:00:57;;;;;;;1.17;1.17;;;;;;;27.56;71.91;99727.91;5069278;28;20230;-75
2023/06/28 05:03:26;;;;;;;1.20;1.20;;;;;;;27.72;70.96;99698.50;5070255;28;20748;-73
2023/06/28 05:05:53;;;;;;;1.17;1.17;;;;;;;27.69;71.38;99688.06;5071172;28;20210;-74
2023/06/28 05:08:21;;;;;;;0.98;0.98;;;;;;;28.43;68.91;99722.53;5070153;28;20203;-73
2023/06/28 05:10:48;;;;;;;1.13;1.13;;;;;;;28.41;68.84;99735.09;5070555;28;20207;-74
2023/06/28 05:13:15;;;;;;;1.23;1.23;;;;;;;28.14;71.67;99732.38;5070404;28;20201;-74
2023/06/28 05:15:41;;;;;;;1.10;1.10;;;;;;;28.49;70.57;99727.47;5070758;28;20263;-73
2023/06/28 05:18:08;;;;;;;1.48;1.38;;;;;;;28.39;70.26;99735.22;5069408;28;20264;-75
2023/06/28 05:20:35;;;;;;;1.05;1.05;;;;;;;27.98;71.65;99743.09;5069331;28;20199;-74
2023/06/28 05:23:12;;;;;;;1.25;1.25;;;;;;;27.96;71.36;99736.16;5063133;28;20705;-73
2023/06/28 05:25:42;;;;;;;1.25;1.25;;;;;;;27.82;73.02;99736.13;5066367;28;20203;-73
2023/06/28 05:28:10;;;;;;;1.48;1.48;;;;;;;27.31;76.62;99735.63;5066003;28;20199;-73
2023/06/28 05:30:37;;;;;;;1.35;1.35;;;;;;;27.77;75.35;99752.41;5066592;28;20226;-72
2023/06/28 05:33:04;;;;;;;1.40;1.40;;;;;;;27.40;77.96;99752.84;5069738;28;20210;-72
2023/06/28 05:35:31;;;;;;;1.10;1.10;;;;;;;27.39;77.64;99749.34;5068680;28;20722;-72
2023/06/28 05:37:58;;;;;;;1.98;1.88;;;;;;;27.55;76.16;99743.97;5068688;28;20198;-72
2023/06/28 05:40:26;;;;;;;1.20;1.20;;;;;;;27.70;74.60;99768.84;5063756;28;20200;-72
2023/06/28 05:42:54;;;;;;;1.40;1.38;;;;;;;27.90;74.78;99772.00;5061045;28;20215;-72
2023/06/28 05:45:22;;;;;;;0.90;0.90;;;;;;;27.97;74.17;99768.03;5064412;28;20265;-72
2023/06/28 05:47:49;;;;;;;1.05;1.05;;;;;;;27.67;74.45;99769.91;5070318;28;20203;-72
2023/06/28 05:50:16;;;;;;;1.05;1.05;;;;;;;27.49;76.75;99768.31;5070403;28;20206;-72
2023/06/28 05:52:44;;;;;;;1.00;1.00;;;;;;;27.72;74.76;99766.97;5070100;28;20241;-72
2023/06/28 05:55:12;;;;;;;1.50;1.50;;;;;;;27.55;74.28;99701.34;5067061;28;20209;-73
2023/06/28 05:57:39;;;;;;;0.95;0.95;;;;;;;28.32;73.40;99773.03;5068884;28;20200;-73
2023/06/28 06:00:10;;;;;;;1.00;1.00;;;;;;;27.90;73.25;99782.69;5034376;28;20203;-72
2023/06/28 06:02:37;;;;;;;0.80;0.80;;;;;;;27.64;72.86;99787.88;5067131;28;20622;-72
2023/06/28 06:05:05;;;;;;;1.17;1.17;;;;;;;27.93;72.33;99789.66;5055964;28;20263;-73
2023/06/28 06:07:34;;;;;;;1.00;1.00;;;;;;;27.67;73.15;99785.88;5060049;28;20203;-73
2023/06/28 06:10:01;;;;;;;4.95;1.77;;;;;;;27.27;75.20;99792.66;5048506;28;20238;-73
2023/06/28 06:12:28;;;;;;;1.40;1.30;;;;;;;26.88;78.79;99798.47;5066651;28;20199;-72
2023/06/28 06:14:56;;;;;;;1.45;1.45;;;;;;;26.44;79.75;99776.09;5066126;28;20203;-72
2023/06/28 06:17:24;;;;;;;1.60;1.50;;;;;;;26.19;83.26;99784.53;5063381;28;20199;-73
2023/06/28 06:19:51;;;;;;;1.23;1.23;;;;;;;26.01;83.82;99770.41;5065014;28;20636;-73
2023/06/28 06:22:18;;;;;;;1.50;1.40;;;;;;;26.06;84.88;99788.78;5053370;28;20617;-75
2023/06/28 06:24:45;;;;;;;1.13;1.13;;;;;;;25.96;85.87;99793.72;5065886;28;20199;-73
2023/06/28 06:27:12;;;;;;;1.30;1.30;;;;;;;26.41;83.30;99792.22;5064227;28;20205;-73
2023/06/28 06:29:38;;;;;;;1.35;1.33;;;;;;;26.43;83.02;99799.16;5060474;28;20200;-73
2023/06/28 06:32:06;;;;;;;1.67;1.58;;;;;;;26.59;83.81;99804.50;5064679;28;20261;-73
2023/06/28 06:34:34;;;;;;;1.40;1.30;;;;;;;27.03;80.75;99804.72;5064538;28;20204;-73
2023/06/28 06:37:01;;;;;;;1.50;1.40;;;;;;;27.22;77.87;99810.69;5056885;28;20593;-73
2023/06/28 06:39:27;;;;;;;1.27;1.27;;;;;;;27.18;75.61;99808.31;5065095;28;20221;-72
2023/06/28 06:41:54;;;;;;;1.17;1.17;;;;;;;27.35;73.37;99793.09;5069523;28;20244;-72
2023/06/28 06:44:21;;;;;;;1.52;1.45;;;;;;;27.15;74.04;99808.50;5068868;28;20222;-72
2023/06/28 06:46:48;;;;;;;1.05;1.05;;;;;;;27.00;77.00;99787.09;5068211;28;20210;-72
2023/06/28 06:49:18;;;;;;;1.50;1.40;;;;;;;27.16;77.70;99805.72;5062199;28;20298;-73
2023/06/28 06:51:47;;;;;;;1.70;1.60;;;;;;;27.14;75.04;99804.13;5061323;28;20305;-72
2023/06/28 06:54:13;;;;;;;1.55;1.45;;;;;;;27.06;75.89;99789.44;5061982;28;20206;-72
2023/06/28 06:56:40;;;;;;;1.80;1.70;;;;;;;27.07;74.45;99800.94;5069730;28;20753;-72
2023/06/28 06:59:07;;;;;;;1.40;1.30;;;;;;;27.27;75.24;99802.44;5070033;28;20221;-72
2023/06/28 07:01:34;;;;;;;1.67;1.58;;;;;;;27.43;77.71;99793.47;5070234;28;20206;-74
2023/06/28 07:04:01;;;;;;;2.60;1.77;;;;;;;27.45;72.63;99790.75;5030704;28;20734;-73
2023/06/28 07:06:28;;;;;;;1.23;1.23;;;;;;;27.53;71.35;99802.69;5060540;28;20203;-72
2023/06/28 07:08:57;;;;;;;1.20;1.20;;;;;;;27.64;69.48;99796.72;5069346;28;20195;-73
2023/06/28 07:11:25;;;;;;;1.13;1.13;;;;;;;27.09;72.56;99802.56;5069109;28;20670;-72
2023/06/28 07:13:52;;;;;;;1.83;1.73;;;;;;;27.23;74.26;99806.22;5069370;28;20686;-73
2023/06/28 07:16:19;;;;;;;1.60;1.50;;;;;;;27.00;72.72;99811.06;5069221;28;20199;-73
2023/06/28 07:18:46;;;;;;;1.27;1.23;;;;;;;26.92;72.29;99808.00;5069709;28;20206;-73
2023/06/28 07:21:14;;;;;;;1.50;1.40;;;;;;;27.04;71.26;99801.13;5073240;28;20752;-72
2023/06/28 07:23:40;;;;;;;1.50;1.40;;;;;;;27.04;71.58;99801.13;5072841;28;20219;-73
2023/06/28 07:26:09;;;;;;;1.65;1.55;;;;;;;27.33;69.77;99802.94;5053940;28;20662;-72
2023/06/28 07:28:36;;;;;;;1.60;1.50;;;;;;;27.10;70.08;99808.75;5037821;28;20191;-73
2023/06/28 07:31:02;;;;;;;1.20;1.20;;;;;;;27.36;68.42;99816.09;5037544;28;20230;-72
2023/06/28 07:33:29;;;;;;;1.50;1.40;;;;;;;27.28;67.17;99805.03;5072696;28;20678;-73
2023/06/28 07:35:56;;;;;;;1.48;1.38;;;;;;;26.92;69.18;99809.78;5072788;28;20286;-72
2023/06/28 07:38:23;;;;;;;1.58;1.50;;;;;;;26.86;70.19;99786.19;5072337;28;20194;-73
2023/06/28 07:40:53;;;;;;;1.08;1.08;;;;;;;26.99;74.39;99806.72;5072699;28;20202;-72
2023/06/28 07:43:21;;;;;;;1.30;1.30;;;;;;;26.95;66.67;99794.50;5072700;28;20709;-72
2023/06/28 07:45:48;;;;;;;1.27;1.27;;;;;;;26.81;69.31;99815.69;5072350;28;20203;-72
2023/06/28 07:48:14;;;;;;;1.27;1.27;;;;;;;26.93;68.42;99798.22;5072392;28;20199;-72
2023/06/28 07:50:42;;;;;;;1.30;1.30;;;;;;;26.99;68.01;99809.38;5072529;28;20210;-72
2023/06/28 07:53:09;;;;;;;1.40;1.30;;;;;;;27.02;66.73;99821.63;5072410;28;20681;-72
2023/06/28 07:55:36;;;;;;;3.22;2.65;;;;;;;26.78;66.91;99805.22;5072214;28;20672;-72
2023/06/28 07:58:03;;;;;;;1.45;1.35;;;;;;;26.99;66.11;99808.50;5072399;28;20260;-72
2023/06/28 08:00:31;;;;;;;1.77;1.67;;;;;;;27.52;66.69;99818.75;5072494;28;20202;-72
2023/06/28 08:02:58;;;;;;;1.48;1.45;;;;;;;27.95;64.37;99828.59;5037142;28;20261;-72
2023/06/28 08:05:25;;;;;;;1.60;1.50;;;;;;;27.57;63.83;99827.34;5072150;28;20264;-72
2023/06/28 08:07:54;;;;;;;1.30;1.30;;;;;;;27.69;63.88;99821.28;5071927;28;20300;-72
2023/06/28 08:10:21;;;;;;;1.45;1.35;;;;;;;27.30;63.59;99820.91;5072468;28;20337;-72
2023/06/28 08:12:48;;;;;;;1.40;1.30;;;;;;;27.16;64.03;99816.38;5071986;28;20230;-72
2023/06/28 08:15:15;;;;;;;1.50;1.40;;;;;;;27.02;65.30;99793.22;5072065;28;20198;-72
2023/06/28 08:17:43;;;;;;;1.63;1.52;;;;;;;27.32;64.85;99827.03;5071658;28;20368;-72
2023/06/28 08:20:10;;;;;;;1.45;1.35;;;;;;;27.56;65.13;99830.94;5071929;28;20203;-72
2023/06/28 08:22:37;;;;;;;1.02;1.02;;;;;;;27.53;62.76;99836.47;5072212;28;20198;-72
2023/06/28 08:25:04;;;;;;;1.40;1.30;;;;;;;27.31;64.63;99836.81;5071680;28;20237;-72
2023/06/28 08:27:31;;;;;;;1.20;1.20;;;;;;;27.29;63.95;99825.38;5071038;28;20676;-73
2023/06/28 08:29:58;;;;;;;1.08;1.08;;;;;;;27.48;65.65;99833.19;5051366;28;20208;-72
2023/06/28 08:32:25;;;;;;;1.52;1.42;;;;;;;27.73;63.21;99848.59;5065819;28;20301;-73
2023/06/28 08:34:53;;;;;;;2.05;1.95;;;;;;;27.85;64.45;99835.41;5036748;28;20205;-72
2023/06/28 08:37:20;;;;;;;1.20;1.20;;;;;;;27.52;62.52;99832.94;5071316;28;20206;-72
2023/06/28 08:39:47;;;;;;;1.20;1.20;;;;;;;27.61;62.04;99825.34;5071951;28;20199;-73
2023/06/28 08:42:18;;;;;;;1.20;1.20;;;;;;;27.79;62.69;99838.44;5071342;28;20207;-72
2023/06/28 08:44:49;;;;;;;1.38;1.38;;;;;;;27.92;62.91;99843.91;5071862;28;20228;-72
2023/06/28 08:47:16;;;;;;;1.77;1.67;;;;;;;27.97;62.28;99841.78;5070952;28;20203;-72
2023/06/28 08:49:44;;;;;;;1.67;1.58;;;;;;;27.77;63.35;99828.81;5052710;28;20665;-72
2023/06/28 08:52:15;;;;;;;1.50;1.40;;;;;;;27.98;64.68;99841.72;5071439;28;20198;-73
2023/06/28 08:54:44;;;;;;;1.38;1.33;;;;;;;27.82;64.60;99838.28;5036326;28;20298;-72
2023/06/28 08:57:10;;;;;;;1.42;1.40;;;;;;;27.85;62.70;99822.09;5071204;28;20203;-72
2023/06/28 08:59:38;;;;;;;1.55;1.45;;;;;;;27.98;64.81;99836.38;5071117;28;20199;-72
2023/06/28 09:02:07;;;;;;;0.95;0.95;;;;;;;28.27;61.99;99836.44;5071390;28;20666;-73
2023/06/28 09:04:34;;;;;;;0.90;0.90;;;;;;;28.48;61.83;99819.09;5071012;28;20222;-73
2023/06/28 09:07:02;;;;;;;0.98;0.98;;;;;;;28.09;63.12;99835.78;5070801;28;20202;-73
2023/06/28 09:09:31;;;;;;;1.20;1.20;;;;;;;27.99;62.16;99840.78;5070805;28;20278;-73
2023/06/28 09:11:59;;;;;;;1.02;1.02;;;;;;;27.81;62.72;99833.03;5035615;28;20203;-73
2023/06/28 09:14:26;;;;;;;1.40;1.40;;;;;;;28.02;63.07;99840.59;5070630;28;20540;-73
2023/06/28 09:16:52;;;;;;;1.20;1.20;;;;;;;28.27;64.52;99839.97;5070662;28;20195;-73
2023/06/28 09:19:19;;;;;;;1.30;1.30;;;;;;;28.44;64.14;99825.59;5070922;28;20209;-73
2023/06/28 09:21:46;;;;;;;1.25;1.25;;;;;;;28.60;60.68;99831.69;5070800;28;20203;-73
2023/06/28 09:24:14;;;;;;;0.90;0.90;;;;;;;28.43;60.00;99839.91;5070497;28;20222;-73
2023/06/28 09:26:44;;;;;;;2.83;2.45;;;;;;;28.06;57.93;99852.78;5070138;28;20544;-72
2023/06/28 09:29:12;;;;;;;1.25;1.25;;;;;;;27.83;56.88;99855.09;5070725;28;20245;-73
2023/06/28 09:31:41;;;;;;;1.40;1.30;;;;;;;27.67;57.32;99852.50;5070856;28;20226;-73
2023/06/28 09:34:08;;;;;;;1.35;1.30;;;;;;;27.47;57.05;99826.13;5070568;28;20241;-73
2023/06/28 09:36:37;;;;;;;1.50;1.40;;;;;;;27.82;57.34;99854.25;5064812;28;20206;-75
2023/06/28 09:39:05;;;;;;;1.52;1.42;;;;;;;27.94;57.04;99857.97;5062434;28;20285;-74
2023/06/28 09:41:38;;;;;;;1.55;1.45;;;;;;;28.26;54.14;99838.25;5055491;28;20290;-73
2023/06/28 09:44:09;;;;;;;1.00;1.00;;;;;;;28.55;53.77;99831.13;5066655;28;20793;-74
2023/06/28 09:46:36;;;;;;;1.60;1.50;;;;;;;28.39;52.73;99860.56;5059876;28;20209;-74
2023/06/28 09:49:02;;;;;;;1.35;1.30;;;;;;;28.45;54.67;99854.84;5070003;28;20206;-73
2023/06/28 09:51:29;;;;;;;1.40;1.30;;;;;;;28.96;52.67;99840.06;5070370;28;20195;-74
2023/06/28 09:53:58;;;;;;;1.33;1.23;;;;;;;28.78;51.62;99824.38;5070422;28;20202;-74
2023/06/28 09:56:34;;;;;;;1.33;1.23;;;;;;;29.49;52.54;99849.06;5069947;28;20195;-74
2023/06/28 09:59:05;;;;;;;1.10;1.10;;;;;;;30.02;50.92;99840.97;5070557;28;20297;-73
2023/06/28 10:01:37;;;;;;;1.77;1.67;;;;;;;29.41;51.05;99846.03;5069973;28;20199;-75
2023/06/28 10:04:06;;;;;;;1.48;1.38;;;;;;;29.25;51.11;99856.00;5070380;28;20226;-74
2023/06/28 10:06:34;;;;;;;1.10;1.10;;;;;;;28.78;52.16;99845.72;5069784;28;20688;-75
2023/06/28 10:09:02;;;;;;;1.45;1.35;;;;;;;29.12;51.94;99857.75;5058232;28;20332;-74
2023/06/28 10:11:32;;;;;;;1.10;1.10;;;;;;;28.99;51.61;99852.34;5050876;28;20202;-73
2023/06/28 10:14:00;;;;;;;1.30;1.20;;;;;;;29.10;54.01;99873.03;5070258;28;20222;-73
2023/06/28 10:16:33;;;;;;;1.27;1.27;;;;;;;29.59;51.34;99866.22;5069946;28;20199;-73
2023/06/28 10:19:00;;;;;;;1.33;1.23;;;;;;;28.81;51.25;99866.88;5070267;28;20699;-74
2023/06/28 10:21:28;;;;;;;1.10;1.10;;;;;;;29.18;50.45;99865.38;5070074;28;20210;-75
2023/06/28 10:23:56;;;;;;;1.10;1.10;;;;;;;29.25;50.22;99845.31;5069934;28;20222;-75
2023/06/28 10:26:23;;;;;;;1.25;1.20;;;;;;;29.42;52.07;99855.78;5069802;28;20194;-73
2023/06/28 10:28:50;;;;;;;1.50;1.40;;;;;;;29.11;50.92;99880.09;5070301;28;20199;-73
2023/06/28 10:31:18;;;;;;;1.50;1.40;;;;;;;29.29;48.96;99882.44;5069806;28;20622;-73
2023/06/28 10:33:48;;;;;;;1.23;1.15;;;;;;;29.72;46.26;99879.59;5070906;28;20668;-73
2023/06/28 10:36:16;;;;;;;1.60;1.50;;;;;;;29.13;46.05;99888.84;5070337;28;20199;-74
2023/06/28 10:38:43;;;;;;;1.48;1.38;;;;;;;28.85;48.34;99861.25;5070104;28;20195;-73
2023/06/28 10:41:14;;;;;;;1.45;1.35;;;;;;;29.29;45.83;99878.91;5069788;28;20202;-73
2023/06/28 10:43:41;;;;;;;1.25;1.25;;;;;;;28.92;45.86;99881.25;5069980;28;20199;-73
2023/06/28 10:46:22;;;;;;;1.50;1.40;;;;;;;28.75;44.86;99900.16;5034794;28;20221;-75
2023/06/28 10:48:53;;;;;;;1.42;1.33;;;;;;;28.94;45.91;99895.34;5069986;28;20222;-75
2023/06/28 10:51:21;;;;;;;1.33;1.33;;;;;;;29.03;45.94;99909.94;5069508;28;20199;-75
2023/06/28 10:53:52;;;;;;;1.40;1.30;;;;;;;29.40;45.20;99909.31;5033847;28;20203;-73
2023/06/28 10:56:20;;;;;;;1.50;1.40;;;;;;;29.21;45.52;99921.25;5071696;28;20234;-73
2023/06/28 10:58:48;;;;;;;1.63;1.52;;;;;;;28.55;45.93;99920.03;5073916;28;20201;-73
2023/06/28 11:01:33;;;;;;;1.45;1.40;;;;;;;28.93;45.59;99909.66;5074086;28;20226;-75
2023/06/28 11:04:14;;;;;;;1.10;1.10;;;;;;;28.65;46.54;99898.09;5073777;28;20218;-73
2023/06/28 11:06:41;;;;;;;1.23;1.23;;;;;;;28.29;46.64;99922.56;5073323;28;20213;-73
2023/06/28 11:09:14;;;;;;;1.65;1.55;;;;;;;28.54;47.58;99912.09;5073927;28;20303;-75
2023/06/28 11:11:53;;;;;;;1.23;1.23;;;;;;;28.38;48.15;99912.19;5073713;28;20648;-73
2023/06/28 11:14:25;;;;;;;1.40;1.30;;;;;;;28.26;49.42;99920.06;5073659;28;20248;-73
2023/06/28 11:16:53;;;;;;;1.80;1.60;;;;;;;28.32;50.10;99907.25;5073341;28;20198;-75
2023/06/28 11:19:24;;;;;;;1.58;1.48;;;;;;;28.53;50.61;99915.75;5073582;28;20194;-74
2023/06/28 11:21:56;;;;;;;1.40;1.30;;;;;;;28.53;48.90;99905.94;5073278;28;20235;-76
2023/06/28 11:24:42;;;;;;;1.40;1.30;;;;;;;28.24;48.81;99898.84;5073935;28;20740;-78
2023/06/28 11:27:11;;;;;;;1.50;1.40;;;;;;;28.62;48.44;99915.16;5073480;28;20282;-76
2023/06/28 11:29:53;;;;;;;1.45;1.35;;;;;;;28.61;48.54;99897.44;5073507;28;20252;-76
2023/06/28 11:32:24;;;;;;;1.20;1.10;;;;;;;28.65;48.43;99917.63;5073701;28;20261;-76
2023/06/28 11:34:53;;;;;;;1.50;1.40;;;;;;;28.20;50.74;99896.44;5073663;28;20199;-74